createdAt,value
2019-03-06T00:04:35.053Z,100435.08
2019-03-06T00:09:28.820Z,100434.06
2019-03-06T00:14:22.399Z,100427.57
2019-03-06T00:19:15.998Z,100418.52
2019-03-06T00:24:09.270Z,100412.55
2019-03-06T00:29:03.047Z,100406.45
2019-03-06T00:34:05.191Z,100406.47
2019-03-06T00:39:02.949Z,100399.11
2019-03-06T00:43:56.461Z,100389.75
2019-03-06T00:48:59.366Z,100386.37
2019-03-06T00:54:00.700Z,100386.37
2019-03-06T00:58:54.512Z,100377.44
2019-03-06T01:03:48.131Z,100374.92
2019-03-06T01:08:41.849Z,100376.91
2019-03-06T01:13:35.388Z,100367.86
2019-03-06T01:18:29.262Z,100370.80
2019-03-06T01:23:23.179Z,100368.97
2019-03-06T01:28:17.206Z,100364.79
2019-03-06T01:33:27.450Z,100358.32
2019-03-06T01:38:39.347Z,100356.59
2019-03-06T01:43:41.059Z,100349.08
2019-03-06T01:48:34.673Z,100349.31
2019-03-06T01:53:28.283Z,100340.88
2019-03-06T01:58:21.810Z,100335.26
2019-03-06T02:03:15.549Z,100325.94
2019-03-06T02:08:09.645Z,100322.18
2019-03-06T02:13:03.222Z,100307.66
2019-03-06T02:17:56.743Z,100303.31
2019-03-06T02:22:50.438Z,100297.39
2019-03-06T02:27:45.076Z,100286.61
2019-03-06T02:32:38.897Z,100274.31
2019-03-06T02:37:32.626Z,100278.14
2019-03-06T02:42:26.426Z,100273.51
2019-03-06T02:47:21.252Z,100278.68
2019-03-06T02:52:15.109Z,100260.84
2019-03-06T02:57:09.168Z,100257.11
2019-03-06T03:02:22.551Z,100234.97
2019-03-06T03:07:18.075Z,100230.87
2019-03-06T03:12:11.733Z,100216.41
2019-03-06T03:17:05.743Z,100213.26
2019-03-06T03:21:59.361Z,100200.72
2019-03-06T03:26:53.016Z,100207.20
2019-03-06T03:31:46.577Z,100205.95
2019-03-06T03:36:40.480Z,100194.00
2019-03-06T03:41:34.239Z,100192.75
2019-03-06T03:46:28.063Z,100172.55
2019-03-06T03:51:21.805Z,100162.67
2019-03-06T03:56:15.509Z,100164.72
2019-03-06T04:01:09.186Z,100171.83
2019-03-06T04:06:03.109Z,100160.61
2019-03-06T04:10:57.053Z,100143.95
2019-03-06T04:15:50.982Z,100158.47
2019-03-06T04:20:45.058Z,100144.73
2019-03-06T04:25:38.845Z,100146.47
2019-03-06T04:30:32.553Z,100150.39
2019-03-06T04:35:26.325Z,100148.05
2019-03-06T04:40:20.309Z,100142.00
2019-03-06T04:45:13.978Z,100134.70
2019-03-06T04:50:08.822Z,100127.74
2019-03-06T04:55:03.748Z,100115.84
2019-03-06T04:59:57.524Z,100110.97
2019-03-06T05:04:51.303Z,100101.60
2019-03-06T05:09:45.712Z,100107.80
2019-03-06T05:14:39.488Z,100089.70
2019-03-06T05:19:33.391Z,100094.16
2019-03-06T05:24:26.959Z,100078.61
2019-03-06T05:29:20.656Z,100065.48
2019-03-06T05:34:14.850Z,100056.09
2019-03-06T05:39:10.611Z,100049.65
2019-03-06T05:44:04.469Z,100041.09
2019-03-06T05:48:58.260Z,100042.24
2019-03-06T05:53:51.900Z,100019.06
2019-03-06T05:58:45.698Z,100020.63
2019-03-06T06:03:39.594Z,100004.75
2019-03-06T06:08:33.396Z,100003.19
2019-03-06T06:13:26.987Z,100000.44
2019-03-06T06:18:20.635Z,99995.00
2019-03-06T06:23:33.907Z,99985.45
2019-03-06T06:28:27.795Z,99987.36
2019-03-06T06:33:21.443Z,99976.26
2019-03-06T06:38:17.229Z,99970.08
2019-03-06T06:43:10.712Z,99966.56
2019-03-06T06:48:29.738Z,99969.47
2019-03-06T06:54:02.953Z,99958.55
2019-03-06T06:59:15.170Z,99943.67
2019-03-06T07:05:33.435Z,99932.55
2019-03-06T07:10:47.494Z,99913.80
2019-03-06T07:15:53.572Z,99897.36
2019-03-06T07:20:54.734Z,99904.66
2019-03-06T07:26:06.590Z,99897.25
2019-03-06T07:31:19.782Z,99893.88
2019-03-06T07:36:39.169Z,99897.98
2019-03-06T07:41:56.096Z,99893.83
2019-03-06T07:47:09.346Z,99885.65
2019-03-06T07:52:18.644Z,99866.78
2019-03-06T07:57:37.468Z,99862.92
2019-03-06T08:03:03.917Z,99855.52
2019-03-06T08:07:57.402Z,99843.13
2019-03-06T08:12:57.603Z,99851.13
2019-03-06T08:18:09.857Z,99843.94
2019-03-06T08:23:25.940Z,99832.89
2019-03-06T08:28:19.387Z,99818.75
2019-03-06T08:33:18.095Z,99809.52
2019-03-06T08:38:08.657Z,99808.33
2019-03-06T08:43:02.509Z,99806.33
2019-03-06T08:48:08.252Z,99806.61
2019-03-06T08:53:24.887Z,99799.16
2019-03-06T08:58:38.119Z,99785.82
2019-03-06T09:03:50.341Z,99768.48
2019-03-06T09:09:03.550Z,99756.06
2019-03-06T09:14:16.825Z,99734.80
2019-03-06T09:19:29.962Z,99742.03
2019-03-06T09:24:41.984Z,99731.29
2019-03-06T09:29:53.875Z,99715.69
2019-03-06T09:34:56.072Z,99701.88
2019-03-06T09:40:15.803Z,99709.53
2019-03-06T09:45:23.986Z,99697.38
2019-03-06T09:50:36.139Z,99708.14
2019-03-06T09:55:43.761Z,99702.40
2019-03-06T10:00:55.524Z,99701.47
2019-03-06T10:06:09.014Z,99699.07
2019-03-06T10:11:20.250Z,99690.52
2019-03-06T10:16:28.611Z,99674.98
2019-03-06T10:21:25.662Z,99665.27
2019-03-06T10:26:19.672Z,99658.44
2019-03-06T10:31:14.723Z,99671.98
2019-03-06T10:36:10.256Z,99668.64
2019-03-06T10:41:05.474Z,99667.44
2019-03-06T10:46:00.447Z,99668.95
2019-03-06T10:50:54.366Z,99649.95
2019-03-06T10:55:48.460Z,99637.41
2019-03-06T11:01:00.677Z,99639.98
2019-03-06T11:05:54.807Z,99644.26
2019-03-06T11:10:49.041Z,99645.15
2019-03-06T11:15:55.155Z,99638.80
2019-03-06T11:20:41.969Z,99628.00
2019-03-06T11:25:37.083Z,99628.03
2019-03-06T11:30:36.064Z,99606.94
2019-03-06T11:35:30.503Z,99587.42
2019-03-06T11:40:24.446Z,99579.65
2019-03-06T11:45:18.884Z,99565.14
2019-03-06T11:50:13.406Z,99547.78
2019-03-06T11:55:08.545Z,99536.70
2019-03-06T12:00:07.627Z,99541.47
2019-03-06T12:05:01.971Z,99515.67
2019-03-06T12:09:57.096Z,99507.59
2019-03-06T12:14:51.260Z,99490.67
2019-03-06T12:19:47.080Z,99486.09
2019-03-06T12:24:42.392Z,99468.20
2019-03-06T12:29:37.058Z,99461.88
2019-03-06T12:34:32.369Z,99442.91
2019-03-06T12:39:26.480Z,99442.71
2019-03-06T12:44:20.577Z,99431.47
2019-03-06T12:49:16.673Z,99428.03
2019-03-06T12:54:11.147Z,99438.69
2019-03-06T12:59:05.978Z,99416.27
2019-03-06T13:04:15.111Z,99416.11
2019-03-06T13:09:17.266Z,99406.59
2019-03-06T13:14:10.769Z,99392.97
2019-03-06T13:19:06.150Z,99385.23
2019-03-06T13:24:00.174Z,99373.98
2019-03-06T13:28:57.500Z,99393.98
2019-03-06T13:33:56.218Z,99377.47
2019-03-06T13:38:56.135Z,99372.62
2019-03-06T13:43:45.325Z,99376.58
2019-03-06T13:48:39.043Z,99366.98
2019-03-06T13:53:33.046Z,99341.31
2019-03-06T13:58:26.619Z,99351.19
2019-03-06T14:03:20.587Z,99343.90
2019-03-06T14:08:14.151Z,99368.27
2019-03-06T14:13:07.875Z,99367.20
2019-03-06T14:18:01.430Z,99367.50
2019-03-06T14:22:55.320Z,99369.73
2019-03-06T14:27:49.095Z,99368.14
2019-03-06T14:32:42.920Z,99353.98
2019-03-06T14:37:36.341Z,99354.36
2019-03-06T14:42:30.056Z,99349.81
2019-03-06T14:47:24.069Z,99348.84
2019-03-06T14:52:17.982Z,99333.27
2019-03-06T14:57:11.986Z,99324.50
2019-03-06T15:02:05.954Z,99307.28
2019-03-06T15:06:59.943Z,99296.70
2019-03-06T15:11:53.371Z,99294.59
2019-03-06T15:16:47.197Z,99282.09
2019-03-06T15:21:43.761Z,99276.06
2019-03-06T15:26:37.518Z,99266.48
2019-03-06T15:31:31.170Z,99268.72
2019-03-06T15:36:25.008Z,99275.70
2019-03-06T15:41:18.900Z,99259.27
2019-03-06T15:46:12.797Z,99259.77
2019-03-06T15:51:06.190Z,99253.59
2019-03-06T15:55:59.754Z,99250.02
2019-03-06T16:00:53.606Z,99245.47
2019-03-06T16:05:47.219Z,99239.21
2019-03-06T16:10:41.387Z,99242.98
2019-03-06T16:15:35.282Z,99235.14
2019-03-06T16:20:28.877Z,99235.28
2019-03-06T16:25:35.951Z,99232.72
2019-03-06T16:30:22.498Z,99229.33
2019-03-06T16:35:16.705Z,99218.91
2019-03-06T16:40:13.708Z,99221.84
2019-03-06T16:45:09.095Z,99217.09
2019-03-06T16:50:03.078Z,99207.55
2019-03-06T16:54:58.378Z,99215.05
2019-03-06T16:59:52.195Z,99215.51
2019-03-06T17:04:45.814Z,99200.73
2019-03-06T17:09:49.804Z,99199.51
2019-03-06T17:14:43.696Z,99204.39
2019-03-06T17:19:38.031Z,99205.67
2019-03-06T17:24:33.471Z,99197.92
2019-03-06T17:29:30.761Z,99189.48
2019-03-06T17:34:24.962Z,99199.11
2019-03-06T17:39:18.879Z,99205.42
2019-03-06T17:44:12.467Z,99202.32
2019-03-06T17:49:07.685Z,99205.08
2019-03-06T17:54:01.567Z,99197.28
2019-03-06T17:58:58.756Z,99203.80
2019-03-06T18:04:02.952Z,99182.42
2019-03-06T18:08:57.030Z,99174.81
2019-03-06T18:13:50.821Z,99169.78
2019-03-06T18:18:44.525Z,99171.89
2019-03-06T18:23:38.623Z,99172.22
2019-03-06T18:28:32.002Z,99168.63
2019-03-06T18:33:25.599Z,99168.30
2019-03-06T18:38:19.368Z,99171.22
2019-03-06T18:43:13.164Z,99166.38
2019-03-06T18:48:06.827Z,99167.67
2019-03-06T18:53:00.827Z,99154.20
2019-03-06T18:57:54.581Z,99149.02
2019-03-06T19:02:48.313Z,99150.64
2019-03-06T19:07:42.000Z,99153.23
2019-03-06T19:12:35.582Z,99142.36
2019-03-06T19:17:29.232Z,99137.32
2019-03-06T19:22:36.123Z,99079.44
2019-03-06T19:27:30.996Z,99118.83
2019-03-06T19:32:24.950Z,99116.41
2019-03-06T19:37:18.629Z,99112.67
2019-03-06T19:42:12.512Z,99104.73
2019-03-06T19:47:06.197Z,99101.50
2019-03-06T19:51:59.762Z,99094.03
2019-03-06T19:56:54.977Z,99084.79
2019-03-06T20:01:48.885Z,99074.23
2019-03-06T20:06:42.485Z,99074.59
2019-03-06T20:11:38.057Z,99066.16
2019-03-06T20:16:31.676Z,99060.64
2019-03-06T20:21:25.570Z,99062.25
2019-03-06T20:26:19.970Z,99064.04
2019-03-06T20:31:13.882Z,99071.66
2019-03-06T20:36:07.521Z,99055.93
2019-03-06T20:41:00.946Z,99050.41
2019-03-06T20:45:54.691Z,99044.57
2019-03-06T20:50:48.410Z,99053.63
2019-03-06T20:55:42.096Z,99047.66
2019-03-06T21:00:35.678Z,99045.70
2019-03-06T21:05:30.384Z,99043.61
2019-03-06T21:10:25.506Z,99043.93
2019-03-06T21:15:19.540Z,99039.39
2019-03-06T21:20:17.262Z,99036.64
2019-03-06T21:25:12.324Z,99036.31
2019-03-06T21:30:09.967Z,99025.92
2019-03-06T21:35:04.052Z,99024.63
2019-03-06T21:39:57.747Z,99020.60
2019-03-06T21:44:53.232Z,99025.59
2019-03-06T21:49:49.048Z,99019.13
2019-03-06T21:54:43.091Z,99015.41
2019-03-06T21:59:37.133Z,99018.33
2019-03-06T22:04:33.167Z,99015.08
2019-03-06T22:09:26.405Z,99005.99
2019-03-06T22:14:21.205Z,99003.73
2019-03-06T22:19:15.192Z,98999.69
2019-03-06T22:24:09.024Z,98991.43
2019-03-06T22:29:02.456Z,98986.23
2019-03-06T22:33:56.131Z,98984.12
2019-03-06T22:38:49.718Z,98967.75
2019-03-06T22:43:43.398Z,98963.23
2019-03-06T22:48:37.088Z,98955.63
2019-03-06T22:53:30.778Z,98946.22
2019-03-06T22:58:24.471Z,98941.02
2019-03-06T23:03:19.805Z,98935.52
2019-03-06T23:08:13.347Z,98927.40
2019-03-06T23:13:07.173Z,98923.18
2019-03-06T23:18:02.134Z,98920.09
2019-03-06T23:22:57.245Z,98908.89
2019-03-06T23:27:50.886Z,98903.56
2019-03-06T23:32:44.583Z,98889.83
2019-03-06T23:37:38.462Z,98880.13
2019-03-06T23:42:32.352Z,98870.09
2019-03-06T23:47:26.143Z,98853.72
2019-03-06T23:52:27.700Z,98847.08
2019-03-06T23:57:21.370Z,98840.31
